createdAt,value
2023-03-26T00:00:11.864Z,51.37
2023-03-26T00:04:13.045Z,50.67
2023-03-26T00:08:13.994Z,50.69
2023-03-26T00:12:14.938Z,51.04
2023-03-26T00:16:16.092Z,51.85
2023-03-26T00:20:17.085Z,53.06
2023-03-26T00:24:18.272Z,52.44
2023-03-26T00:28:19.395Z,51.93
2023-03-26T00:32:20.508Z,52.72
2023-03-26T00:36:21.707Z,54.09
2023-03-26T00:40:22.781Z,54.30
2023-03-26T00:44:24.016Z,54.19
2023-03-26T00:48:34.490Z,54.61
2023-03-26T00:52:27.345Z,55.14
2023-03-26T00:56:27.328Z,54.50
2023-03-26T01:00:28.333Z,52.94
2023-03-26T01:04:29.461Z,52.31
2023-03-26T01:08:30.520Z,51.28
2023-03-26T01:12:31.556Z,51.57
2023-03-26T01:16:32.717Z,53.22
2023-03-26T01:20:33.855Z,54.08
2023-03-26T01:24:35.121Z,56.41
2023-03-26T01:28:36.451Z,54.50
2023-03-26T01:32:37.639Z,53.33
2023-03-26T01:36:38.723Z,55.52
2023-03-26T01:40:39.803Z,55.58
2023-03-26T01:44:40.941Z,56.20
2023-03-26T01:48:42.166Z,57.03
2023-03-26T01:52:43.409Z,57.14
2023-03-26T01:56:44.576Z,55.95
2023-03-26T02:00:45.725Z,55.43
2023-03-26T02:04:46.872Z,55.97
2023-03-26T02:08:48.027Z,57.01
2023-03-26T02:12:49.168Z,56.48
2023-03-26T02:16:50.345Z,57.09
2023-03-26T02:20:51.556Z,55.80
2023-03-26T02:24:52.688Z,53.97
2023-03-26T02:28:53.925Z,53.38
2023-03-26T02:32:55.234Z,52.66
2023-03-26T02:36:56.498Z,54.69
2023-03-26T02:40:57.714Z,53.42
2023-03-26T02:44:58.882Z,53.16
2023-03-26T02:49:00.197Z,54.58
2023-03-26T02:53:01.417Z,54.26
2023-03-26T02:57:02.717Z,54.06
2023-03-26T03:01:03.959Z,52.62
2023-03-26T03:05:05.219Z,53.60
2023-03-26T03:09:06.343Z,52.69
2023-03-26T03:13:07.586Z,54.85
2023-03-26T03:17:08.963Z,54.11
2023-03-26T03:21:10.005Z,55.14
2023-03-26T03:25:11.115Z,55.74
2023-03-26T03:29:12.159Z,54.52
2023-03-26T03:33:13.171Z,55.19
2023-03-26T03:37:14.214Z,53.99
2023-03-26T03:41:15.241Z,54.38
2023-03-26T03:45:16.286Z,56.45
2023-03-26T03:49:17.453Z,52.61
2023-03-26T03:53:18.592Z,55.48
2023-03-26T03:57:20.179Z,54.80
2023-03-26T04:01:20.840Z,54.55
2023-03-26T04:05:21.915Z,51.80
2023-03-26T04:09:23.174Z,51.72
2023-03-26T04:13:23.978Z,51.70
2023-03-26T04:17:25.043Z,51.61
2023-03-26T04:21:25.994Z,50.58
2023-03-26T04:25:27.030Z,55.11
2023-03-26T04:29:28.361Z,54.37
2023-03-26T04:33:29.709Z,51.56
2023-03-26T04:37:30.850Z,55.78
2023-03-26T04:41:32.041Z,55.91
2023-03-26T04:45:33.210Z,53.48
2023-03-26T04:49:34.347Z,54.82
2023-03-26T04:53:35.538Z,55.58
2023-03-26T04:57:36.846Z,56.84
2023-03-26T05:01:38.229Z,56.79
2023-03-26T05:05:39.238Z,55.77
2023-03-26T05:09:40.326Z,53.75
2023-03-26T05:13:41.382Z,53.52
2023-03-26T05:17:42.429Z,51.60
2023-03-26T05:21:43.287Z,49.31
2023-03-26T05:25:44.250Z,48.86
2023-03-26T05:29:45.253Z,54.45
2023-03-26T05:33:46.371Z,50.18
2023-03-26T05:37:47.362Z,52.90
2023-03-26T05:41:48.458Z,55.67
2023-03-26T05:45:49.639Z,56.32
2023-03-26T05:49:50.860Z,57.15
2023-03-26T05:53:51.974Z,56.77
2023-03-26T05:57:53.171Z,55.25
2023-03-26T06:01:54.368Z,55.10
2023-03-26T06:05:55.651Z,55.63
2023-03-26T06:09:57.182Z,50.47
2023-03-26T06:13:58.172Z,52.00
2023-03-26T06:17:59.272Z,54.34
2023-03-26T06:22:00.264Z,51.97
2023-03-26T06:26:01.478Z,52.10
2023-03-26T06:30:02.685Z,50.64
2023-03-26T06:34:03.797Z,49.50
2023-03-26T06:38:04.890Z,48.42
2023-03-26T06:42:05.833Z,47.16
2023-03-26T06:46:06.799Z,48.56
2023-03-26T06:50:07.709Z,47.52
2023-03-26T06:54:08.668Z,47.04
2023-03-26T06:58:09.570Z,46.51
2023-03-26T07:02:10.700Z,46.89
2023-03-26T07:06:11.358Z,47.29
2023-03-26T07:10:12.245Z,49.63
2023-03-26T07:14:13.178Z,49.74
2023-03-26T07:18:14.092Z,49.18
2023-03-26T07:22:14.951Z,49.48
2023-03-26T07:26:15.773Z,49.51
2023-03-26T07:30:16.587Z,49.49
2023-03-26T07:34:17.380Z,49.41
2023-03-26T07:38:18.503Z,47.74
2023-03-26T07:42:19.496Z,46.97
2023-03-26T07:46:20.330Z,46.06
2023-03-26T07:50:21.110Z,45.63
2023-03-26T07:54:21.870Z,44.64
2023-03-26T07:58:22.640Z,44.52
2023-03-26T08:02:23.422Z,44.36
2023-03-26T08:06:24.209Z,44.12
2023-03-26T08:10:24.926Z,43.43
2023-03-26T08:14:25.679Z,43.12
2023-03-26T08:18:26.467Z,43.36
2023-03-26T08:22:27.216Z,43.27
2023-03-26T08:26:27.969Z,42.81
2023-03-26T08:30:28.743Z,43.46
2023-03-26T08:34:29.508Z,43.08
2023-03-26T08:38:30.297Z,43.03
2023-03-26T10:18:50.765Z,41.61
2023-03-26T10:22:51.457Z,41.56
2023-03-26T10:27:08.958Z,41.35
2023-03-26T11:55:09.598Z,51.84
2023-03-26T11:59:10.314Z,53.06
2023-03-26T12:03:11.096Z,52.91
2023-03-26T12:07:11.822Z,53.49
2023-03-26T12:11:12.533Z,53.41
2023-03-26T12:15:13.256Z,53.98
2023-03-26T12:19:13.931Z,53.75
2023-03-26T12:23:14.770Z,54.51
2023-03-26T12:27:15.725Z,54.07
2023-03-26T12:31:16.506Z,54.97
2023-03-26T12:35:17.227Z,55.07
2023-03-26T12:40:07.726Z,56.07
2023-03-26T12:44:49.558Z,54.89
2023-03-26T12:47:58.716Z,54.54
2023-03-26T12:51:21.298Z,53.81
2023-03-26T12:55:21.090Z,54.74
2023-03-26T12:59:21.882Z,55.21
2023-03-26T13:03:22.794Z,55.18
2023-03-26T13:07:23.497Z,53.57
2023-03-26T13:11:24.296Z,54.69
2023-03-26T13:15:25.120Z,55.83
2023-03-26T13:19:25.933Z,54.91
2023-03-26T13:23:26.759Z,56.13
2023-03-26T13:27:27.617Z,56.20
2023-03-26T13:31:28.566Z,57.01
2023-03-26T13:35:29.478Z,56.89
2023-03-26T13:39:30.454Z,57.37
2023-03-26T13:43:31.407Z,55.80
2023-03-26T13:47:32.462Z,56.73
2023-03-26T13:51:33.470Z,57.00
2023-03-26T13:55:34.519Z,55.87
2023-03-26T13:59:36.307Z,54.95
2023-03-26T14:03:36.236Z,54.52
2023-03-26T14:07:37.027Z,54.68
2023-03-26T14:11:37.886Z,54.08
2023-03-26T14:15:38.584Z,52.93
2023-03-26T14:19:39.301Z,52.79
2023-03-26T14:23:40.299Z,52.76
2023-03-26T14:27:40.878Z,53.58
2023-03-26T14:31:41.902Z,52.49
2023-03-26T14:35:42.679Z,53.46
2023-03-26T14:39:43.455Z,52.26
2023-03-26T14:43:44.272Z,52.44
2023-03-26T14:47:45.190Z,52.00
2023-03-26T14:51:45.852Z,52.77
2023-03-26T14:55:46.648Z,54.16
2023-03-26T14:59:47.476Z,53.92
2023-03-26T15:03:48.310Z,54.77
2023-03-26T15:07:49.132Z,55.37
2023-03-26T15:11:49.950Z,55.21
2023-03-26T15:15:54.093Z,55.09
2023-03-26T15:19:51.609Z,55.90
2023-03-26T15:23:52.438Z,56.26
2023-03-26T15:27:53.285Z,56.68
2023-03-26T15:31:54.327Z,56.41
2023-03-26T15:35:57.428Z,55.93
2023-03-26T15:39:59.459Z,55.84
2023-03-26T15:44:22.604Z,55.73
2023-03-26T15:47:58.898Z,55.37
2023-03-26T15:51:58.789Z,55.26
2023-03-26T15:55:59.717Z,55.22
2023-03-26T16:00:01.044Z,54.80
2023-03-26T16:04:02.302Z,54.62
2023-03-26T16:08:02.651Z,53.75
2023-03-26T16:12:03.677Z,53.14
2023-03-26T16:16:04.754Z,53.11
2023-03-26T16:20:05.629Z,53.28
2023-03-26T16:24:06.423Z,53.48
2023-03-26T16:28:07.324Z,53.72
2023-03-26T16:32:08.267Z,55.23
2023-03-26T16:36:09.129Z,55.76
2023-03-26T16:40:09.980Z,56.02
2023-03-26T16:44:11.316Z,56.45
2023-03-26T16:48:11.670Z,56.51
2023-03-26T16:52:12.501Z,56.12
2023-03-26T16:56:13.366Z,56.76
2023-03-26T17:00:14.154Z,56.23
2023-03-26T17:04:14.965Z,56.62
2023-03-26T17:08:15.824Z,56.45
2023-03-26T17:12:16.560Z,56.59
2023-03-26T17:16:17.386Z,57.10
2023-03-26T17:20:18.235Z,57.49
2023-03-26T17:24:19.203Z,58.25
2023-03-26T17:28:20.286Z,58.73
2023-03-26T17:32:21.443Z,58.99
2023-03-26T17:36:22.350Z,58.65
2023-03-26T17:40:23.328Z,60.23
2023-03-26T17:44:24.201Z,59.85
2023-03-26T17:48:25.061Z,59.50
2023-03-26T17:52:25.942Z,59.55
2023-03-26T17:56:26.788Z,60.28
2023-03-26T18:00:27.748Z,60.61
2023-03-26T18:04:28.724Z,60.82
2023-03-26T18:08:29.706Z,62.80
2023-03-26T18:12:30.805Z,62.93
2023-03-26T18:16:31.940Z,61.62
2023-03-26T18:20:32.756Z,61.22
2023-03-26T18:24:33.704Z,60.20
2023-03-26T18:28:34.854Z,59.62
2023-03-26T18:32:35.657Z,59.52
2023-03-26T18:36:36.602Z,59.82
2023-03-26T18:40:37.534Z,60.56
2023-03-26T18:44:38.443Z,60.27
2023-03-26T18:48:39.393Z,60.17
2023-03-26T18:52:40.332Z,60.21
2023-03-26T18:56:41.263Z,60.03
2023-03-26T19:00:42.340Z,58.83
2023-03-26T19:04:45.428Z,59.07
2023-03-26T19:08:44.316Z,59.28
2023-03-26T19:12:45.149Z,57.70
2023-03-26T19:16:46.152Z,54.15
2023-03-26T19:20:47.013Z,55.23
2023-03-26T19:24:47.944Z,54.52
2023-03-26T19:28:48.840Z,55.90
2023-03-26T19:32:49.800Z,55.15
2023-03-26T19:36:50.664Z,55.74
2023-03-26T19:40:51.523Z,57.97
2023-03-26T19:44:52.412Z,57.68
2023-03-26T19:48:53.380Z,56.88
2023-03-26T19:52:58.548Z,57.09
2023-03-26T19:56:56.223Z,57.05
2023-03-26T20:00:56.417Z,56.41
2023-03-26T20:04:57.003Z,57.00
2023-03-26T20:08:57.929Z,56.42
2023-03-26T20:12:58.853Z,55.82
2023-03-26T20:16:59.871Z,56.21
2023-03-26T20:21:00.753Z,55.64
2023-03-26T20:25:01.746Z,55.15
2023-03-26T20:29:04.016Z,56.09
2023-03-26T20:33:12.648Z,56.16
2023-03-26T20:37:05.551Z,55.80
2023-03-26T20:41:05.392Z,56.63
2023-03-26T20:45:06.284Z,57.38
2023-03-26T20:49:07.227Z,57.23
2023-03-26T20:53:08.324Z,57.97
2023-03-26T20:57:09.386Z,56.49
2023-03-26T21:01:10.371Z,56.80
2023-03-26T21:05:11.875Z,56.92
2023-03-26T21:09:12.429Z,56.52
2023-03-26T21:13:13.370Z,57.14
2023-03-26T21:17:14.381Z,56.94
2023-03-26T21:21:21.203Z,57.43
2023-03-26T21:25:17.406Z,56.64
2023-03-26T21:29:17.236Z,57.16
2023-03-26T21:33:18.093Z,55.64
2023-03-26T21:37:18.998Z,55.99
2023-03-26T21:41:19.946Z,56.66
2023-03-26T21:45:20.909Z,56.77
2023-03-26T21:49:21.914Z,55.32
2023-03-26T21:53:22.905Z,55.51
2023-03-26T21:57:23.900Z,55.81
2023-03-26T22:01:24.938Z,55.47
2023-03-26T22:05:25.922Z,54.96
2023-03-26T22:09:35.712Z,55.58
2023-03-26T22:13:28.700Z,55.28
2023-03-26T22:17:28.903Z,55.09
2023-03-26T22:21:29.502Z,56.53
2023-03-26T22:25:30.576Z,55.35
2023-03-26T22:29:31.531Z,55.05
2023-03-26T22:33:32.470Z,54.94
2023-03-26T22:37:33.365Z,54.97
2023-03-26T22:41:34.889Z,55.30
2023-03-26T22:45:35.151Z,56.72
2023-03-26T22:49:36.027Z,56.60
2023-03-26T22:53:36.903Z,56.98
2023-03-26T22:57:37.766Z,56.66
2023-03-26T23:01:38.723Z,56.38
2023-03-26T23:05:39.543Z,56.96
2023-03-26T23:09:40.429Z,57.91
2023-03-26T23:13:41.296Z,57.05
2023-03-26T23:17:42.217Z,56.65
2023-03-26T23:21:43.084Z,55.90
2023-03-26T23:25:43.971Z,56.70
2023-03-26T23:29:44.863Z,56.52
2023-03-26T23:33:45.941Z,56.39
2023-03-26T23:37:46.661Z,56.39
2023-03-26T23:41:47.575Z,56.63
2023-03-26T23:45:48.491Z,56.28
2023-03-26T23:49:49.412Z,56.41
2023-03-26T23:53:50.507Z,56.66
2023-03-26T23:57:51.682Z,56.36
